sensor_id;sensor_type;location;lat;lon;timestamp;temperature;humidity
10155;DHT22;5118;48.570;7.916;2023-05-07T00:01:49;13.10;99.90
10155;DHT22;5118;48.570;7.916;2023-05-07T00:04:18;13.10;99.90
10155;DHT22;5118;48.570;7.916;2023-05-07T00:06:47;13.10;99.90
10155;DHT22;5118;48.570;7.916;2023-05-07T00:09:17;13.00;99.90
10155;DHT22;5118;48.570;7.916;2023-05-07T00:11:45;13.00;99.90
10155;DHT22;5118;48.570;7.916;2023-05-07T00:14:14;13.00;99.90
10155;DHT22;5118;48.570;7.916;2023-05-07T00:16:42;13.00;99.90
10155;DHT22;5118;48.570;7.916;2023-05-07T00:19:11;13.00;99.90
10155;DHT22;5118;48.570;7.916;2023-05-07T00:21:39;13.00;99.90
10155;DHT22;5118;48.570;7.916;2023-05-07T00:24:07;13.00;99.90
10155;DHT22;5118;48.570;7.916;2023-05-07T00:26:37;12.90;99.90
10155;DHT22;5118;48.570;7.916;2023-05-07T00:29:05;12.90;99.90
10155;DHT22;5118;48.570;7.916;2023-05-07T00:31:33;12.90;99.90
10155;DHT22;5118;48.570;7.916;2023-05-07T00:34:02;12.90;99.90
10155;DHT22;5118;48.570;7.916;2023-05-07T00:36:31;12.90;99.90
10155;DHT22;5118;48.570;7.916;2023-05-07T00:39:00;12.90;99.90
10155;DHT22;5118;48.570;7.916;2023-05-07T00:41:29;12.80;99.90
10155;DHT22;5118;48.570;7.916;2023-05-07T00:43:59;12.80;99.90
10155;DHT22;5118;48.570;7.916;2023-05-07T00:46:30;12.80;99.90
10155;DHT22;5118;48.570;7.916;2023-05-07T00:48:59;12.80;99.90
10155;DHT22;5118;48.570;7.916;2023-05-07T00:51:28;12.80;99.90
10155;DHT22;5118;48.570;7.916;2023-05-07T00:53:58;12.80;99.90
10155;DHT22;5118;48.570;7.916;2023-05-07T00:56:26;12.80;99.90
10155;DHT22;5118;48.570;7.916;2023-05-07T00:58:55;12.70;99.90
10155;DHT22;5118;48.570;7.916;2023-05-07T01:01:25;12.70;99.90
10155;DHT22;5118;48.570;7.916;2023-05-07T01:03:54;12.70;99.90
10155;DHT22;5118;48.570;7.916;2023-05-07T01:06:25;12.60;99.90
10155;DHT22;5118;48.570;7.916;2023-05-07T01:08:55;12.60;99.90
10155;DHT22;5118;48.570;7.916;2023-05-07T01:11:24;12.50;99.90
10155;DHT22;5118;48.570;7.916;2023-05-07T01:13:53;12.50;99.90
10155;DHT22;5118;48.570;7.916;2023-05-07T01:16:22;12.40;99.90
10155;DHT22;5118;48.570;7.916;2023-05-07T01:18:51;12.40;99.90
10155;DHT22;5118;48.570;7.916;2023-05-07T01:21:25;12.40;99.90
10155;DHT22;5118;48.570;7.916;2023-05-07T01:23:58;12.30;99.90
10155;DHT22;5118;48.570;7.916;2023-05-07T01:26:28;12.30;99.90
10155;DHT22;5118;48.570;7.916;2023-05-07T01:28:56;12.30;99.90
10155;DHT22;5118;48.570;7.916;2023-05-07T01:31:25;12.20;99.90
10155;DHT22;5118;48.570;7.916;2023-05-07T01:33:54;12.20;99.90
10155;DHT22;5118;48.570;7.916;2023-05-07T01:36:24;12.20;99.90
10155;DHT22;5118;48.570;7.916;2023-05-07T01:38:54;12.20;99.90
10155;DHT22;5118;48.570;7.916;2023-05-07T01:41:26;12.20;99.90
10155;DHT22;5118;48.570;7.916;2023-05-07T01:43:55;12.10;99.90
10155;DHT22;5118;48.570;7.916;2023-05-07T01:46:26;12.10;99.90
10155;DHT22;5118;48.570;7.916;2023-05-07T01:48:55;12.10;99.90
10155;DHT22;5118;48.570;7.916;2023-05-07T01:51:23;12.10;99.90
10155;DHT22;5118;48.570;7.916;2023-05-07T01:53:52;12.10;99.90
10155;DHT22;5118;48.570;7.916;2023-05-07T01:56:21;12.00;99.90
10155;DHT22;5118;48.570;7.916;2023-05-07T01:58:51;12.00;99.90
10155;DHT22;5118;48.570;7.916;2023-05-07T02:01:19;12.00;99.90
10155;DHT22;5118;48.570;7.916;2023-05-07T02:03:49;12.00;99.90
10155;DHT22;5118;48.570;7.916;2023-05-07T02:06:23;11.90;99.90
10155;DHT22;5118;48.570;7.916;2023-05-07T02:08:55;11.90;99.90
10155;DHT22;5118;48.570;7.916;2023-05-07T02:11:24;11.80;99.90
10155;DHT22;5118;48.570;7.916;2023-05-07T02:13:54;11.80;99.90
10155;DHT22;5118;48.570;7.916;2023-05-07T02:16:22;11.80;99.90
10155;DHT22;5118;48.570;7.916;2023-05-07T02:18:52;11.70;99.90
10155;DHT22;5118;48.570;7.916;2023-05-07T02:21:20;11.70;99.90
10155;DHT22;5118;48.570;7.916;2023-05-07T02:23:48;11.70;99.90
10155;DHT22;5118;48.570;7.916;2023-05-07T02:26:17;11.70;99.90
10155;DHT22;5118;48.570;7.916;2023-05-07T02:28:45;11.70;99.90
10155;DHT22;5118;48.570;7.916;2023-05-07T02:31:15;11.60;99.90
10155;DHT22;5118;48.570;7.916;2023-05-07T02:33:44;11.60;99.90
10155;DHT22;5118;48.570;7.916;2023-05-07T02:36:14;11.60;99.90
10155;DHT22;5118;48.570;7.916;2023-05-07T02:38:54;11.60;99.90
10155;DHT22;5118;48.570;7.916;2023-05-07T02:41:22;11.60;99.90
10155;DHT22;5118;48.570;7.916;2023-05-07T02:43:50;11.60;99.90
10155;DHT22;5118;48.570;7.916;2023-05-07T02:46:20;11.60;99.90
10155;DHT22;5118;48.570;7.916;2023-05-07T02:48:57;11.50;99.90
10155;DHT22;5118;48.570;7.916;2023-05-07T02:51:26;11.50;99.90
10155;DHT22;5118;48.570;7.916;2023-05-07T02:53:57;11.50;99.90
10155;DHT22;5118;48.570;7.916;2023-05-07T02:56:27;11.50;99.90
10155;DHT22;5118;48.570;7.916;2023-05-07T02:58:55;11.50;99.90
10155;DHT22;5118;48.570;7.916;2023-05-07T03:01:28;11.50;99.90
10155;DHT22;5118;48.570;7.916;2023-05-07T03:04:03;11.50;99.90
10155;DHT22;5118;48.570;7.916;2023-05-07T03:06:32;11.50;99.90
10155;DHT22;5118;48.570;7.916;2023-05-07T03:09:00;11.50;99.90
10155;DHT22;5118;48.570;7.916;2023-05-07T03:11:29;11.50;99.90
10155;DHT22;5118;48.570;7.916;2023-05-07T03:13:58;11.50;99.90
10155;DHT22;5118;48.570;7.916;2023-05-07T03:16:26;11.50;99.90
10155;DHT22;5118;48.570;7.916;2023-05-07T03:18:56;11.50;99.90
10155;DHT22;5118;48.570;7.916;2023-05-07T03:21:24;11.50;99.90
10155;DHT22;5118;48.570;7.916;2023-05-07T03:23:53;11.50;99.90
10155;DHT22;5118;48.570;7.916;2023-05-07T03:26:21;11.40;99.90
10155;DHT22;5118;48.570;7.916;2023-05-07T03:28:50;11.40;99.90
10155;DHT22;5118;48.570;7.916;2023-05-07T03:31:18;11.40;99.90
10155;DHT22;5118;48.570;7.916;2023-05-07T03:33:50;11.30;99.90
10155;DHT22;5118;48.570;7.916;2023-05-07T03:36:21;11.30;99.90
10155;DHT22;5118;48.570;7.916;2023-05-07T03:38:50;11.30;99.90
10155;DHT22;5118;48.570;7.916;2023-05-07T03:41:21;11.20;99.90
10155;DHT22;5118;48.570;7.916;2023-05-07T03:43:49;11.20;99.90
10155;DHT22;5118;48.570;7.916;2023-05-07T03:46:18;11.20;99.90
10155;DHT22;5118;48.570;7.916;2023-05-07T03:48:46;11.10;99.90
10155;DHT22;5118;48.570;7.916;2023-05-07T03:51:16;11.10;99.90
10155;DHT22;5118;48.570;7.916;2023-05-07T03:53:45;11.10;99.90
10155;DHT22;5118;48.570;7.916;2023-05-07T03:56:14;11.00;99.90
10155;DHT22;5118;48.570;7.916;2023-05-07T03:58:46;11.00;99.90
10155;DHT22;5118;48.570;7.916;2023-05-07T04:01:15;11.00;99.90
10155;DHT22;5118;48.570;7.916;2023-05-07T04:03:44;11.00;99.90
10155;DHT22;5118;48.570;7.916;2023-05-07T04:06:12;11.00;99.90
10155;DHT22;5118;48.570;7.916;2023-05-07T04:08:45;11.00;99.90
10155;DHT22;5118;48.570;7.916;2023-05-07T04:11:13;11.00;99.90
10155;DHT22;5118;48.570;7.916;2023-05-07T04:13:42;11.00;99.90
10155;DHT22;5118;48.570;7.916;2023-05-07T04:16:10;11.10;99.90
10155;DHT22;5118;48.570;7.916;2023-05-07T04:18:39;11.10;99.90
10155;DHT22;5118;48.570;7.916;2023-05-07T04:21:14;11.20;99.90
10155;DHT22;5118;48.570;7.916;2023-05-07T04:23:45;11.20;99.90
10155;DHT22;5118;48.570;7.916;2023-05-07T04:26:13;11.20;99.90
10155;DHT22;5118;48.570;7.916;2023-05-07T04:28:44;11.30;99.90
10155;DHT22;5118;48.570;7.916;2023-05-07T04:31:12;11.30;99.90
10155;DHT22;5118;48.570;7.916;2023-05-07T04:33:40;11.30;99.90
10155;DHT22;5118;48.570;7.916;2023-05-07T04:36:12;11.40;99.90
10155;DHT22;5118;48.570;7.916;2023-05-07T04:38:51;11.40;99.90
10155;DHT22;5118;48.570;7.916;2023-05-07T04:41:20;11.40;99.90
10155;DHT22;5118;48.570;7.916;2023-05-07T04:43:48;11.40;99.90
10155;DHT22;5118;48.570;7.916;2023-05-07T04:46:19;11.40;99.90
10155;DHT22;5118;48.570;7.916;2023-05-07T04:48:49;11.50;99.90
10155;DHT22;5118;48.570;7.916;2023-05-07T04:51:17;11.50;99.90
10155;DHT22;5118;48.570;7.916;2023-05-07T04:53:46;11.50;99.90
10155;DHT22;5118;48.570;7.916;2023-05-07T04:56:15;11.60;99.90
10155;DHT22;5118;48.570;7.916;2023-05-07T04:58:45;11.60;99.90
10155;DHT22;5118;48.570;7.916;2023-05-07T05:01:16;11.70;99.90
10155;DHT22;5118;48.570;7.916;2023-05-07T05:03:44;11.70;99.90
10155;DHT22;5118;48.570;7.916;2023-05-07T05:06:12;11.80;99.90
10155;DHT22;5118;48.570;7.916;2023-05-07T05:08:41;11.80;99.90
10155;DHT22;5118;48.570;7.916;2023-05-07T05:11:10;11.90;99.90
10155;DHT22;5118;48.570;7.916;2023-05-07T05:13:40;12.00;99.90
10155;DHT22;5118;48.570;7.916;2023-05-07T05:16:14;12.10;99.90
10155;DHT22;5118;48.570;7.916;2023-05-07T05:18:43;12.20;99.90
10155;DHT22;5118;48.570;7.916;2023-05-07T05:21:13;12.30;99.90
10155;DHT22;5118;48.570;7.916;2023-05-07T05:23:43;12.50;99.90
10155;DHT22;5118;48.570;7.916;2023-05-07T05:26:14;12.60;99.90
10155;DHT22;5118;48.570;7.916;2023-05-07T05:28:45;12.70;99.90
10155;DHT22;5118;48.570;7.916;2023-05-07T05:31:16;12.90;99.90
10155;DHT22;5118;48.570;7.916;2023-05-07T05:33:45;13.00;99.90
10155;DHT22;5118;48.570;7.916;2023-05-07T05:36:14;13.20;99.90
10155;DHT22;5118;48.570;7.916;2023-05-07T05:38:45;13.40;99.90
10155;DHT22;5118;48.570;7.916;2023-05-07T05:41:14;13.60;99.90
10155;DHT22;5118;48.570;7.916;2023-05-07T05:43:44;13.70;99.90
10155;DHT22;5118;48.570;7.916;2023-05-07T05:46:13;13.90;99.90
10155;DHT22;5118;48.570;7.916;2023-05-07T05:48:43;14.00;99.90
10155;DHT22;5118;48.570;7.916;2023-05-07T05:51:12;14.20;99.90
10155;DHT22;5118;48.570;7.916;2023-05-07T05:53:40;14.40;99.90
10155;DHT22;5118;48.570;7.916;2023-05-07T05:56:08;14.50;99.90
10155;DHT22;5118;48.570;7.916;2023-05-07T05:58:40;14.60;99.90
10155;DHT22;5118;48.570;7.916;2023-05-07T06:01:10;14.70;99.90
10155;DHT22;5118;48.570;7.916;2023-05-07T06:03:39;14.80;99.90
10155;DHT22;5118;48.570;7.916;2023-05-07T06:06:12;14.80;99.90
10155;DHT22;5118;48.570;7.916;2023-05-07T06:08:43;14.90;99.90
10155;DHT22;5118;48.570;7.916;2023-05-07T06:11:16;14.90;99.90
10155;DHT22;5118;48.570;7.916;2023-05-07T06:13:46;14.90;99.90
10155;DHT22;5118;48.570;7.916;2023-05-07T06:16:16;14.90;99.90
10155;DHT22;5118;48.570;7.916;2023-05-07T06:18:44;15.00;99.90
10155;DHT22;5118;48.570;7.916;2023-05-07T06:21:14;15.00;99.90
10155;DHT22;5118;48.570;7.916;2023-05-07T06:23:43;15.10;99.90
10155;DHT22;5118;48.570;7.916;2023-05-07T06:26:11;15.10;99.90
10155;DHT22;5118;48.570;7.916;2023-05-07T06:28:42;15.20;99.90
10155;DHT22;5118;48.570;7.916;2023-05-07T06:31:13;15.30;99.90
10155;DHT22;5118;48.570;7.916;2023-05-07T06:33:48;15.30;99.90
10155;DHT22;5118;48.570;7.916;2023-05-07T06:36:18;15.30;99.90
10155;DHT22;5118;48.570;7.916;2023-05-07T06:38:47;15.40;99.90
10155;DHT22;5118;48.570;7.916;2023-05-07T06:41:15;15.50;99.90
10155;DHT22;5118;48.570;7.916;2023-05-07T06:43:43;15.50;99.90
10155;DHT22;5118;48.570;7.916;2023-05-07T06:46:30;15.50;99.90
10155;DHT22;5118;48.570;7.916;2023-05-07T06:49:00;15.40;99.90
10155;DHT22;5118;48.570;7.916;2023-05-07T06:51:28;15.40;99.90
10155;DHT22;5118;48.570;7.916;2023-05-07T06:54:01;15.40;99.90
10155;DHT22;5118;48.570;7.916;2023-05-07T06:56:32;15.40;99.90
10155;DHT22;5118;48.570;7.916;2023-05-07T06:59:03;15.40;99.90
10155;DHT22;5118;48.570;7.916;2023-05-07T07:01:35;15.50;99.90
10155;DHT22;5118;48.570;7.916;2023-05-07T07:04:07;15.60;99.90
10155;DHT22;5118;48.570;7.916;2023-05-07T07:06:37;15.70;99.90
10155;DHT22;5118;48.570;7.916;2023-05-07T07:09:09;15.80;99.90
10155;DHT22;5118;48.570;7.916;2023-05-07T07:11:37;16.00;99.90
10155;DHT22;5118;48.570;7.916;2023-05-07T07:14:06;16.00;99.90
10155;DHT22;5118;48.570;7.916;2023-05-07T07:16:41;16.10;99.90
10155;DHT22;5118;48.570;7.916;2023-05-07T07:19:10;16.00;99.90
10155;DHT22;5118;48.570;7.916;2023-05-07T07:21:39;16.00;99.90
10155;DHT22;5118;48.570;7.916;2023-05-07T07:24:07;16.10;99.90
10155;DHT22;5118;48.570;7.916;2023-05-07T07:26:36;16.10;99.90
10155;DHT22;5118;48.570;7.916;2023-05-07T07:29:04;16.10;99.90
10155;DHT22;5118;48.570;7.916;2023-05-07T07:31:33;16.10;99.90
10155;DHT22;5118;48.570;7.916;2023-05-07T07:34:02;16.20;99.90
10155;DHT22;5118;48.570;7.916;2023-05-07T07:36:31;16.30;99.90
10155;DHT22;5118;48.570;7.916;2023-05-07T07:39:14;16.40;99.90
10155;DHT22;5118;48.570;7.916;2023-05-07T07:41:42;16.70;99.90
10155;DHT22;5118;48.570;7.916;2023-05-07T07:44:12;17.00;99.90
10155;DHT22;5118;48.570;7.916;2023-05-07T07:46:44;17.30;99.90
10155;DHT22;5118;48.570;7.916;2023-05-07T07:49:14;17.60;99.90
10155;DHT22;5118;48.570;7.916;2023-05-07T07:51:44;17.80;99.90
10155;DHT22;5118;48.570;7.916;2023-05-07T07:54:15;17.90;99.90
10155;DHT22;5118;48.570;7.916;2023-05-07T07:56:44;17.90;99.90
10155;DHT22;5118;48.570;7.916;2023-05-07T07:59:13;18.00;99.90
10155;DHT22;5118;48.570;7.916;2023-05-07T08:01:46;18.10;99.90
10155;DHT22;5118;48.570;7.916;2023-05-07T08:04:21;18.30;99.90
10155;DHT22;5118;48.570;7.916;2023-05-07T08:06:51;18.40;99.90
10155;DHT22;5118;48.570;7.916;2023-05-07T08:09:21;18.60;99.90
10155;DHT22;5118;48.570;7.916;2023-05-07T08:11:51;18.70;99.90
10155;DHT22;5118;48.570;7.916;2023-05-07T08:14:19;18.90;99.90
10155;DHT22;5118;48.570;7.916;2023-05-07T08:16:48;19.00;99.90
10155;DHT22;5118;48.570;7.916;2023-05-07T08:19:16;19.10;99.90
10155;DHT22;5118;48.570;7.916;2023-05-07T08:21:45;19.20;99.90
10155;DHT22;5118;48.570;7.916;2023-05-07T08:24:16;19.40;99.90
10155;DHT22;5118;48.570;7.916;2023-05-07T08:26:46;19.60;99.90
10155;DHT22;5118;48.570;7.916;2023-05-07T08:29:14;19.80;99.90
10155;DHT22;5118;48.570;7.916;2023-05-07T08:31:43;20.10;99.90
10155;DHT22;5118;48.570;7.916;2023-05-07T08:34:11;20.20;99.90
10155;DHT22;5118;48.570;7.916;2023-05-07T08:36:43;20.40;99.90
10155;DHT22;5118;48.570;7.916;2023-05-07T08:39:16;20.50;99.90
10155;DHT22;5118;48.570;7.916;2023-05-07T08:41:48;20.60;99.90
10155;DHT22;5118;48.570;7.916;2023-05-07T08:44:21;20.70;99.90
10155;DHT22;5118;48.570;7.916;2023-05-07T08:46:51;20.80;99.90
10155;DHT22;5118;48.570;7.916;2023-05-07T08:49:22;20.80;99.90
10155;DHT22;5118;48.570;7.916;2023-05-07T08:51:52;20.70;99.90
10155;DHT22;5118;48.570;7.916;2023-05-07T08:54:22;20.60;99.90
10155;DHT22;5118;48.570;7.916;2023-05-07T08:56:51;20.60;99.90
10155;DHT22;5118;48.570;7.916;2023-05-07T08:59:20;20.60;99.90
10155;DHT22;5118;48.570;7.916;2023-05-07T09:01:48;20.60;99.90
10155;DHT22;5118;48.570;7.916;2023-05-07T09:04:17;20.60;99.90
10155;DHT22;5118;48.570;7.916;2023-05-07T09:06:46;20.70;99.90
10155;DHT22;5118;48.570;7.916;2023-05-07T09:09:17;20.80;99.90
10155;DHT22;5118;48.570;7.916;2023-05-07T09:11:48;20.90;99.90
10155;DHT22;5118;48.570;7.916;2023-05-07T09:14:21;21.10;99.90
10155;DHT22;5118;48.570;7.916;2023-05-07T09:16:52;21.20;99.90
10155;DHT22;5118;48.570;7.916;2023-05-07T09:19:22;21.30;99.90
10155;DHT22;5118;48.570;7.916;2023-05-07T09:21:58;21.40;99.90
10155;DHT22;5118;48.570;7.916;2023-05-07T09:24:29;21.60;99.90
10155;DHT22;5118;48.570;7.916;2023-05-07T09:27:05;21.80;99.90
10155;DHT22;5118;48.570;7.916;2023-05-07T09:29:33;22.00;99.90
10155;DHT22;5118;48.570;7.916;2023-05-07T09:32:05;22.20;99.90
10155;DHT22;5118;48.570;7.916;2023-05-07T09:34:34;22.40;99.90
10155;DHT22;5118;48.570;7.916;2023-05-07T09:37:05;22.60;99.90
10155;DHT22;5118;48.570;7.916;2023-05-07T09:39:41;22.80;99.90
10155;DHT22;5118;48.570;7.916;2023-05-07T09:42:12;22.90;99.90
10155;DHT22;5118;48.570;7.916;2023-05-07T09:44:43;23.00;99.90
10155;DHT22;5118;48.570;7.916;2023-05-07T09:47:19;23.10;99.90
10155;DHT22;5118;48.570;7.916;2023-05-07T09:49:55;23.20;99.90
10155;DHT22;5118;48.570;7.916;2023-05-07T09:52:24;23.30;99.90
10155;DHT22;5118;48.570;7.916;2023-05-07T09:54:57;23.50;99.90
10155;DHT22;5118;48.570;7.916;2023-05-07T09:57:30;23.40;99.90
10155;DHT22;5118;48.570;7.916;2023-05-07T10:00:05;23.60;99.90
10155;DHT22;5118;48.570;7.916;2023-05-07T10:02:50;23.80;99.90
10155;DHT22;5118;48.570;7.916;2023-05-07T10:05:27;24.00;99.90
10155;DHT22;5118;48.570;7.916;2023-05-07T10:07:59;24.10;99.90
10155;DHT22;5118;48.570;7.916;2023-05-07T10:10:33;24.30;99.90
10155;DHT22;5118;48.570;7.916;2023-05-07T10:13:05;24.50;99.90
10155;DHT22;5118;48.570;7.916;2023-05-07T10:15:42;24.40;99.90
10155;DHT22;5118;48.570;7.916;2023-05-07T10:18:12;24.50;99.90
10155;DHT22;5118;48.570;7.916;2023-05-07T10:20:46;24.50;99.90
10155;DHT22;5118;48.570;7.916;2023-05-07T10:23:19;24.30;99.90
10155;DHT22;5118;48.570;7.916;2023-05-07T10:25:53;24.30;99.90
10155;DHT22;5118;48.570;7.916;2023-05-07T10:28:29;24.30;99.90
10155;DHT22;5118;48.570;7.916;2023-05-07T10:31:15;24.30;99.90
10155;DHT22;5118;48.570;7.916;2023-05-07T10:33:48;24.20;99.90
10155;DHT22;5118;48.570;7.916;2023-05-07T10:36:21;24.40;99.90
10155;DHT22;5118;48.570;7.916;2023-05-07T10:38:52;24.40;99.90
10155;DHT22;5118;48.570;7.916;2023-05-07T10:41:21;24.50;99.90
10155;DHT22;5118;48.570;7.916;2023-05-07T10:43:52;24.50;99.90
10155;DHT22;5118;48.570;7.916;2023-05-07T10:46:27;24.80;99.90
10155;DHT22;5118;48.570;7.916;2023-05-07T10:49:11;24.90;99.90
10155;DHT22;5118;48.570;7.916;2023-05-07T10:52:14;25.10;99.90
10155;DHT22;5118;48.570;7.916;2023-05-07T10:55:20;25.20;99.90
10155;DHT22;5118;48.570;7.916;2023-05-07T10:58:23;25.40;99.90
10155;DHT22;5118;48.570;7.916;2023-05-07T11:01:52;25.70;99.90
10155;DHT22;5118;48.570;7.916;2023-05-07T11:04:29;25.80;99.90
10155;DHT22;5118;48.570;7.916;2023-05-07T11:07:29;25.80;99.90
10155;DHT22;5118;48.570;7.916;2023-05-07T11:10:06;26.00;99.90
10155;DHT22;5118;48.570;7.916;2023-05-07T11:12:55;26.20;99.90
10155;DHT22;5118;48.570;7.916;2023-05-07T11:15:42;26.60;99.90
10155;DHT22;5118;48.570;7.916;2023-05-07T11:18:46;27.00;99.90
10155;DHT22;5118;48.570;7.916;2023-05-07T11:21:33;27.50;99.20
10155;DHT22;5118;48.570;7.916;2023-05-07T11:24:15;27.70;98.50
10155;DHT22;5118;48.570;7.916;2023-05-07T11:26:51;27.90;97.70
10155;DHT22;5118;48.570;7.916;2023-05-07T11:29:22;27.80;97.00
10155;DHT22;5118;48.570;7.916;2023-05-07T11:32:03;27.70;96.80
10155;DHT22;5118;48.570;7.916;2023-05-07T11:34:41;27.60;96.60
10155;DHT22;5118;48.570;7.916;2023-05-07T11:37:11;27.60;96.10
10155;DHT22;5118;48.570;7.916;2023-05-07T11:40:02;27.60;95.70
10155;DHT22;5118;48.570;7.916;2023-05-07T11:42:32;27.50;94.40
10155;DHT22;5118;48.570;7.916;2023-05-07T11:45:02;27.20;94.80
10155;DHT22;5118;48.570;7.916;2023-05-07T11:47:31;27.20;95.30
10155;DHT22;5118;48.570;7.916;2023-05-07T11:50:04;27.00;95.50
10155;DHT22;5118;48.570;7.916;2023-05-07T11:52:35;26.60;95.70
10155;DHT22;5118;48.570;7.916;2023-05-07T11:55:04;26.60;96.20
10155;DHT22;5118;48.570;7.916;2023-05-07T11:57:33;26.30;96.10
10155;DHT22;5118;48.570;7.916;2023-05-07T12:00:02;26.10;96.50
10155;DHT22;5118;48.570;7.916;2023-05-07T12:02:39;26.00;96.60
10155;DHT22;5118;48.570;7.916;2023-05-07T12:05:11;25.80;96.20
10155;DHT22;5118;48.570;7.916;2023-05-07T12:07:39;25.70;96.30
10155;DHT22;5118;48.570;7.916;2023-05-07T12:10:11;25.60;96.50
10155;DHT22;5118;48.570;7.916;2023-05-07T12:12:40;25.70;96.20
10155;DHT22;5118;48.570;7.916;2023-05-07T12:15:10;25.50;96.00
10155;DHT22;5118;48.570;7.916;2023-05-07T12:17:38;25.20;96.30
10155;DHT22;5118;48.570;7.916;2023-05-07T12:20:10;25.00;96.90
10155;DHT22;5118;48.570;7.916;2023-05-07T12:22:38;24.90;97.40
10155;DHT22;5118;48.570;7.916;2023-05-07T12:25:08;24.70;97.00
10155;DHT22;5118;48.570;7.916;2023-05-07T12:27:37;24.60;97.20
10155;DHT22;5118;48.570;7.916;2023-05-07T12:30:10;24.50;97.40
10155;DHT22;5118;48.570;7.916;2023-05-07T12:32:39;24.40;97.70
10155;DHT22;5118;48.570;7.916;2023-05-07T12:35:10;24.30;98.10
10155;DHT22;5118;48.570;7.916;2023-05-07T12:37:39;24.20;98.60
10155;DHT22;5118;48.570;7.916;2023-05-07T12:40:10;24.20;98.80
10155;DHT22;5118;48.570;7.916;2023-05-07T12:42:40;24.30;99.20
10155;DHT22;5118;48.570;7.916;2023-05-07T12:45:10;24.40;99.00
10155;DHT22;5118;48.570;7.916;2023-05-07T12:47:43;24.40;98.90
10155;DHT22;5118;48.570;7.916;2023-05-07T12:50:14;24.40;98.70
10155;DHT22;5118;48.570;7.916;2023-05-07T12:52:43;24.50;98.90
10155;DHT22;5118;48.570;7.916;2023-05-07T12:55:14;24.70;98.70
10155;DHT22;5118;48.570;7.916;2023-05-07T12:57:43;24.80;98.60
10155;DHT22;5118;48.570;7.916;2023-05-07T13:00:13;25.00;98.60
10155;DHT22;5118;48.570;7.916;2023-05-07T13:02:42;25.30;98.80
10155;DHT22;5118;48.570;7.916;2023-05-07T13:05:12;25.50;98.50
10155;DHT22;5118;48.570;7.916;2023-05-07T13:07:52;25.70;98.10
10155;DHT22;5118;48.570;7.916;2023-05-07T13:10:22;25.90;97.40
10155;DHT22;5118;48.570;7.916;2023-05-07T13:12:50;26.10;97.10
10155;DHT22;5118;48.570;7.916;2023-05-07T13:15:19;26.20;96.60
10155;DHT22;5118;48.570;7.916;2023-05-07T13:17:48;26.30;96.30
10155;DHT22;5118;48.570;7.916;2023-05-07T13:20:17;26.20;96.50
10155;DHT22;5118;48.570;7.916;2023-05-07T13:22:46;26.00;97.50
10155;DHT22;5118;48.570;7.916;2023-05-07T13:25:15;26.00;97.90
10155;DHT22;5118;48.570;7.916;2023-05-07T13:27:43;26.10;98.20
10155;DHT22;5118;48.570;7.916;2023-05-07T13:30:12;26.00;98.20
10155;DHT22;5118;48.570;7.916;2023-05-07T13:32:41;26.00;98.20
10155;DHT22;5118;48.570;7.916;2023-05-07T13:35:09;26.30;97.90
10155;DHT22;5118;48.570;7.916;2023-05-07T13:37:38;26.60;98.00
10155;DHT22;5118;48.570;7.916;2023-05-07T13:40:09;26.90;97.60
10155;DHT22;5118;48.570;7.916;2023-05-07T13:42:37;27.30;96.70
10155;DHT22;5118;48.570;7.916;2023-05-07T13:45:07;27.50;96.20
10155;DHT22;5118;48.570;7.916;2023-05-07T13:47:36;27.30;95.90
10155;DHT22;5118;48.570;7.916;2023-05-07T13:50:07;27.20;95.90
10155;DHT22;5118;48.570;7.916;2023-05-07T13:52:36;26.90;96.00
10155;DHT22;5118;48.570;7.916;2023-05-07T13:55:05;26.80;96.50
10155;DHT22;5118;48.570;7.916;2023-05-07T13:57:35;26.50;96.70
10155;DHT22;5118;48.570;7.916;2023-05-07T14:00:05;26.00;97.30
10155;DHT22;5118;48.570;7.916;2023-05-07T14:02:41;25.40;98.10
10155;DHT22;5118;48.570;7.916;2023-05-07T14:05:09;25.20;98.50
10155;DHT22;5118;48.570;7.916;2023-05-07T14:07:38;24.90;99.50
10155;DHT22;5118;48.570;7.916;2023-05-07T14:10:07;24.60;99.90
10155;DHT22;5118;48.570;7.916;2023-05-07T14:12:38;24.20;99.90
10155;DHT22;5118;48.570;7.916;2023-05-07T14:15:08;24.10;99.90
10155;DHT22;5118;48.570;7.916;2023-05-07T14:17:37;23.90;99.90
10155;DHT22;5118;48.570;7.916;2023-05-07T14:20:06;23.70;99.90
10155;DHT22;5118;48.570;7.916;2023-05-07T14:22:35;23.30;99.90
10155;DHT22;5118;48.570;7.916;2023-05-07T14:25:04;22.90;99.90
10155;DHT22;5118;48.570;7.916;2023-05-07T14:27:33;22.80;99.90
10155;DHT22;5118;48.570;7.916;2023-05-07T14:30:03;22.70;99.90
10155;DHT22;5118;48.570;7.916;2023-05-07T14:32:32;22.60;99.90
10155;DHT22;5118;48.570;7.916;2023-05-07T14:35:00;22.70;99.90
10155;DHT22;5118;48.570;7.916;2023-05-07T14:37:29;22.80;99.90
10155;DHT22;5118;48.570;7.916;2023-05-07T14:39:57;22.80;99.90
10155;DHT22;5118;48.570;7.916;2023-05-07T14:42:25;22.70;99.90
10155;DHT22;5118;48.570;7.916;2023-05-07T14:44:54;22.60;99.90
10155;DHT22;5118;48.570;7.916;2023-05-07T14:47:23;22.60;99.90
10155;DHT22;5118;48.570;7.916;2023-05-07T14:49:52;22.60;99.90
10155;DHT22;5118;48.570;7.916;2023-05-07T14:52:20;22.60;99.90
10155;DHT22;5118;48.570;7.916;2023-05-07T14:54:48;22.70;99.90
10155;DHT22;5118;48.570;7.916;2023-05-07T14:57:17;22.70;99.90
10155;DHT22;5118;48.570;7.916;2023-05-07T14:59:46;22.70;99.90
10155;DHT22;5118;48.570;7.916;2023-05-07T15:02:14;22.80;99.90
10155;DHT22;5118;48.570;7.916;2023-05-07T15:04:48;22.80;99.90
10155;DHT22;5118;48.570;7.916;2023-05-07T15:07:17;22.90;99.90
10155;DHT22;5118;48.570;7.916;2023-05-07T15:09:45;22.70;99.90
10155;DHT22;5118;48.570;7.916;2023-05-07T15:12:14;22.80;99.90
10155;DHT22;5118;48.570;7.916;2023-05-07T15:14:43;22.80;99.90
10155;DHT22;5118;48.570;7.916;2023-05-07T15:17:12;22.90;99.90
10155;DHT22;5118;48.570;7.916;2023-05-07T15:19:41;22.90;99.90
10155;DHT22;5118;48.570;7.916;2023-05-07T15:22:11;23.00;99.90
10155;DHT22;5118;48.570;7.916;2023-05-07T15:24:40;22.80;99.90
10155;DHT22;5118;48.570;7.916;2023-05-07T15:27:10;22.80;99.90
10155;DHT22;5118;48.570;7.916;2023-05-07T15:29:38;22.90;99.90
10155;DHT22;5118;48.570;7.916;2023-05-07T15:32:06;23.20;99.90
10155;DHT22;5118;48.570;7.916;2023-05-07T15:34:35;23.40;99.90
10155;DHT22;5118;48.570;7.916;2023-05-07T15:37:03;24.00;99.90
10155;DHT22;5118;48.570;7.916;2023-05-07T15:39:33;24.50;99.90
10155;DHT22;5118;48.570;7.916;2023-05-07T15:42:01;24.80;99.90
10155;DHT22;5118;48.570;7.916;2023-05-07T15:44:29;25.10;99.90
10155;DHT22;5118;48.570;7.916;2023-05-07T15:47:01;25.20;99.90
10155;DHT22;5118;48.570;7.916;2023-05-07T15:49:29;25.60;99.90
10155;DHT22;5118;48.570;7.916;2023-05-07T15:51:58;25.80;99.70
10155;DHT22;5118;48.570;7.916;2023-05-07T15:54:26;26.10;99.00
10155;DHT22;5118;48.570;7.916;2023-05-07T15:56:56;26.10;98.60
10155;DHT22;5118;48.570;7.916;2023-05-07T15:59:24;25.80;98.30
10155;DHT22;5118;48.570;7.916;2023-05-07T16:01:52;25.70;98.50
10155;DHT22;5118;48.570;7.916;2023-05-07T16:04:21;25.70;98.70
10155;DHT22;5118;48.570;7.916;2023-05-07T16:06:49;25.50;98.60
10155;DHT22;5118;48.570;7.916;2023-05-07T16:09:18;25.40;99.00